FDX1624 KGSO-KIND
Flight info
| Callsign | FDX1624 |
|---|---|
| Flight time | 1h 18m |
| Altitude | 38000 |
| Route | TRSHA1 BAWDS AZQ HAGAL GIIBS4 |
| Aircraft | B738/M-SDE2E3FGHIRWXY/LB1 |
Departure
| Time | 2026-05-07 16:27 |
|---|---|
| Airport | Piedmont Triad International Airport (KGSO) |
Arrival
| Time | 2026-05-07 17:45 |
|---|---|
| Airport | Indianapolis International Airport (KIND) |
| Time | Latitude | Longitude | Altitude | Speed | Heading |
|---|---|---|---|---|---|
| 2026-05-07 15:26 | 36.11428 | -79.92303 | 942 ft | 0 kts | 319° |
| 2026-05-07 16:08 | 36.11426 | -79.92301 | 943 ft | 3 kts | 319° |
| 2026-05-07 16:08 | 36.11407 | -79.92279 | 943 ft | 4 kts | 316° |
| 2026-05-07 16:09 | 36.11387 | -79.92256 | 944 ft | 4 kts | 316° |
| 2026-05-07 16:09 | 36.11370 | -79.92232 | 945 ft | 4 kts | 293° |
| 2026-05-07 16:09 | 36.11365 | -79.92202 | 946 ft | 4 kts | 252° |
| 2026-05-07 16:09 | 36.11373 | -79.92183 | 946 ft | 1 kts | 226° |
| 2026-05-07 16:10 | 36.11375 | -79.92181 | 946 ft | 1 kts | 226° |
| 2026-05-07 16:14 | 36.11370 | -79.92188 | 946 ft | 4 kts | 226° |
| 2026-05-07 16:15 | 36.11359 | -79.92203 | 946 ft | 1 kts | 226° |
| 2026-05-07 16:15 | 36.11353 | -79.92210 | 944 ft | 1 kts | 226° |
| 2026-05-07 16:15 | 36.11344 | -79.92222 | 946 ft | 3 kts | 226° |
| 2026-05-07 16:15 | 36.11320 | -79.92253 | 945 ft | 0 kts | 226° |
| 2026-05-07 16:17 | 36.11313 | -79.92262 | 946 ft | 4 kts | 226° |
| 2026-05-07 16:17 | 36.11279 | -79.92302 | 946 ft | 8 kts | 221° |
| 2026-05-07 16:17 | 36.11225 | -79.92297 | 947 ft | 8 kts | 152° |
| 2026-05-07 16:17 | 36.11183 | -79.92251 | 948 ft | 8 kts | 135° |
| 2026-05-07 16:18 | 36.11130 | -79.92214 | 949 ft | 13 kts | 183° |
| 2026-05-07 16:18 | 36.11050 | -79.92298 | 948 ft | 17 kts | 226° |
| 2026-05-07 16:18 | 36.10960 | -79.92416 | 944 ft | 21 kts | 228° |
| 2026-05-07 16:18 | 36.10853 | -79.92557 | 942 ft | 24 kts | 226° |
| 2026-05-07 16:19 | 36.10745 | -79.92695 | 938 ft | 14 kts | 227° |
| 2026-05-07 16:19 | 36.10757 | -79.92802 | 938 ft | 16 kts | 315° |
| 2026-05-07 16:19 | 36.10846 | -79.92909 | 934 ft | 20 kts | 316° |
| 2026-05-07 16:19 | 36.10955 | -79.93034 | 928 ft | 23 kts | 317° |
| 2026-05-07 16:20 | 36.11073 | -79.93175 | 920 ft | 25 kts | 315° |
| 2026-05-07 16:20 | 36.11200 | -79.93329 | 911 ft | 27 kts | 316° |
| 2026-05-07 16:20 | 36.11335 | -79.93485 | 902 ft | 26 kts | 317° |
| 2026-05-07 16:20 | 36.11459 | -79.93636 | 898 ft | 24 kts | 315° |
| 2026-05-07 16:21 | 36.11445 | -79.93775 | 900 ft | 18 kts | 226° |
| 2026-05-07 16:21 | 36.11359 | -79.93884 | 902 ft | 18 kts | 225° |
| 2026-05-07 16:21 | 36.11275 | -79.93990 | 905 ft | 17 kts | 225° |
| 2026-05-07 16:21 | 36.11196 | -79.94095 | 912 ft | 16 kts | 227° |
| 2026-05-07 16:22 | 36.11120 | -79.94196 | 913 ft | 16 kts | 226° |
| 2026-05-07 16:22 | 36.11046 | -79.94289 | 915 ft | 15 kts | 220° |
| 2026-05-07 16:22 | 36.10968 | -79.94383 | 915 ft | 17 kts | 226° |
| 2026-05-07 16:22 | 36.10878 | -79.94499 | 918 ft | 21 kts | 226° |
| 2026-05-07 16:23 | 36.10776 | -79.94630 | 925 ft | 21 kts | 226° |
| 2026-05-07 16:23 | 36.10674 | -79.94760 | 926 ft | 21 kts | 226° |
| 2026-05-07 16:23 | 36.10575 | -79.94886 | 929 ft | 20 kts | 225° |
| 2026-05-07 16:23 | 36.10478 | -79.95007 | 932 ft | 20 kts | 225° |
| 2026-05-07 16:24 | 36.10385 | -79.95125 | 934 ft | 19 kts | 225° |
| 2026-05-07 16:24 | 36.10295 | -79.95240 | 937 ft | 18 kts | 226° |
| 2026-05-07 16:24 | 36.10204 | -79.95358 | 941 ft | 21 kts | 226° |
| 2026-05-07 16:24 | 36.10099 | -79.95492 | 943 ft | 22 kts | 226° |
| 2026-05-07 16:25 | 36.09989 | -79.95631 | 946 ft | 23 kts | 226° |
| 2026-05-07 16:25 | 36.09894 | -79.95753 | 948 ft | 13 kts | 226° |
| 2026-05-07 16:25 | 36.09894 | -79.95837 | 950 ft | 11 kts | 315° |
| 2026-05-07 16:25 | 36.09964 | -79.95849 | 948 ft | 11 kts | 33° |
| 2026-05-07 16:26 | 36.09975 | -79.95836 | 949 ft | 0 kts | 44° |
| 2026-05-07 16:26 | 36.10069 | -79.95724 | 946 ft | 54 kts | 46° |
| 2026-05-07 16:27 | 36.10502 | -79.95174 | 933 ft | 122 kts | 46° |
| 2026-05-07 16:27 | 36.11213 | -79.94287 | 1077 ft | 163 kts | 46° |
| 2026-05-07 16:27 | 36.11980 | -79.93208 | 1748 ft | 170 kts | 48° |
| 2026-05-07 16:27 | 36.12798 | -79.92144 | 2666 ft | 171 kts | 44° |
| 2026-05-07 16:28 | 36.13685 | -79.91073 | 3277 ft | 194 kts | 43° |
| 2026-05-07 16:28 | 36.14753 | -79.89827 | 3430 ft | 223 kts | 42° |
| 2026-05-07 16:28 | 36.15940 | -79.88441 | 3641 ft | 251 kts | 41° |
| 2026-05-07 16:28 | 36.17335 | -79.86857 | 3548 ft | 294 kts | 41° |
| 2026-05-07 16:29 | 36.18991 | -79.85247 | 4109 ft | 304 kts | 26° |
| 2026-05-07 16:29 | 36.20945 | -79.84552 | 4543 ft | 287 kts | 1° |
| 2026-05-07 16:29 | 36.22814 | -79.85001 | 4821 ft | 269 kts | 331° |
| 2026-05-07 16:29 | 36.24198 | -79.86443 | 4684 ft | 265 kts | 302° |
| 2026-05-07 16:30 | 36.24835 | -79.88530 | 4811 ft | 258 kts | 279° |
| 2026-05-07 16:30 | 36.25122 | -79.90714 | 4928 ft | 258 kts | 277° |
| 2026-05-07 16:30 | 36.25326 | -79.92954 | 4947 ft | 264 kts | 274° |
| 2026-05-07 16:30 | 36.25476 | -79.95216 | 4945 ft | 263 kts | 274° |
| 2026-05-07 16:31 | 36.25579 | -79.97487 | 4906 ft | 266 kts | 272° |
| 2026-05-07 16:31 | 36.25699 | -79.99791 | 5460 ft | 266 kts | 274° |
| 2026-05-07 16:31 | 36.25879 | -80.01959 | 6810 ft | 251 kts | 274° |
| 2026-05-07 16:31 | 36.26071 | -80.04128 | 7660 ft | 256 kts | 274° |
| 2026-05-07 16:32 | 36.26256 | -80.06345 | 8435 ft | 261 kts | 274° |
| 2026-05-07 16:32 | 36.26439 | -80.08569 | 9407 ft | 258 kts | 274° |
| 2026-05-07 16:32 | 36.26620 | -80.10782 | 10250 ft | 261 kts | 274° |
| 2026-05-07 16:32 | 36.26807 | -80.13114 | 10523 ft | 284 kts | 274° |
| 2026-05-07 16:33 | 36.27009 | -80.15651 | 10725 ft | 307 kts | 274° |
| 2026-05-07 16:33 | 36.27225 | -80.18379 | 10888 ft | 329 kts | 275° |
| 2026-05-07 16:33 | 36.27454 | -80.21253 | 11349 ft | 339 kts | 275° |
| 2026-05-07 16:33 | 36.27684 | -80.24148 | 11979 ft | 343 kts | 274° |
| 2026-05-07 16:34 | 36.27915 | -80.27089 | 12764 ft | 342 kts | 274° |
| 2026-05-07 16:34 | 36.28151 | -80.30020 | 13596 ft | 342 kts | 276° |
| 2026-05-07 16:34 | 36.28695 | -80.32890 | 14342 ft | 344 kts | 286° |
| 2026-05-07 16:34 | 36.29632 | -80.35633 | 15109 ft | 348 kts | 291° |
| 2026-05-07 16:35 | 36.30912 | -80.38217 | 15840 ft | 357 kts | 300° |
| 2026-05-07 16:35 | 36.32484 | -80.40623 | 16498 ft | 361 kts | 301° |
| 2026-05-07 16:35 | 36.34084 | -80.43039 | 17110 ft | 364 kts | 301° |
| 2026-05-07 16:35 | 36.35680 | -80.45455 | 17765 ft | 365 kts | 300° |
| 2026-05-07 16:36 | 36.37264 | -80.47874 | 18439 ft | 365 kts | 299° |
| 2026-05-07 16:36 | 36.38850 | -80.50301 | 19179 ft | 362 kts | 298° |
| 2026-05-07 16:36 | 36.40441 | -80.52750 | 19559 ft | 368 kts | 298° |
| 2026-05-07 16:36 | 36.42060 | -80.55249 | 19914 ft | 375 kts | 298° |
| 2026-05-07 16:37 | 36.43712 | -80.57796 | 20292 ft | 381 kts | 298° |
| 2026-05-07 16:37 | 36.45379 | -80.60360 | 20782 ft | 382 kts | 298° |
| 2026-05-07 16:37 | 36.47050 | -80.62941 | 21240 ft | 384 kts | 298° |
| 2026-05-07 16:37 | 36.48715 | -80.65544 | 21698 ft | 387 kts | 298° |
| 2026-05-07 16:38 | 36.50345 | -80.68159 | 22116 ft | 386 kts | 295° |
| 2026-05-07 16:38 | 36.51738 | -80.70984 | 22525 ft | 380 kts | 287° |
| 2026-05-07 16:38 | 36.52813 | -80.73966 | 22930 ft | 379 kts | 285° |
| 2026-05-07 16:38 | 36.53867 | -80.76978 | 23335 ft | 381 kts | 285° |
| 2026-05-07 16:39 | 36.54933 | -80.80015 | 23690 ft | 384 kts | 285° |
| 2026-05-07 16:39 | 36.56005 | -80.83055 | 24047 ft | 385 kts | 285° |
| 2026-05-07 16:39 | 36.57084 | -80.86106 | 24434 ft | 386 kts | 285° |
| 2026-05-07 16:39 | 36.58168 | -80.89167 | 24757 ft | 387 kts | 285° |
| 2026-05-07 16:40 | 36.59228 | -80.92160 | 25123 ft | 388 kts | 285° |
| 2026-05-07 16:40 | 36.60315 | -80.95224 | 25561 ft | 387 kts | 285° |
| 2026-05-07 16:40 | 36.61400 | -80.98289 | 25881 ft | 388 kts | 285° |
| 2026-05-07 16:40 | 36.62491 | -81.01373 | 26189 ft | 389 kts | 285° |
| 2026-05-07 16:41 | 36.63579 | -81.04454 | 26517 ft | 390 kts | 285° |
| 2026-05-07 16:41 | 36.64673 | -81.07552 | 26855 ft | 391 kts | 284° |
| 2026-05-07 16:41 | 36.65765 | -81.10651 | 27173 ft | 391 kts | 284° |
| 2026-05-07 16:41 | 36.66859 | -81.13753 | 27606 ft | 390 kts | 284° |
| 2026-05-07 16:42 | 36.67945 | -81.16832 | 28085 ft | 387 kts | 284° |
| 2026-05-07 16:42 | 36.69027 | -81.19908 | 28396 ft | 388 kts | 284° |
| 2026-05-07 16:42 | 36.70092 | -81.22940 | 28597 ft | 388 kts | 284° |
| 2026-05-07 16:42 | 36.71175 | -81.26030 | 28795 ft | 388 kts | 284° |
| 2026-05-07 16:43 | 36.72253 | -81.29107 | 29092 ft | 386 kts | 283° |
| 2026-05-07 16:43 | 36.73325 | -81.32160 | 29471 ft | 383 kts | 283° |
| 2026-05-07 16:43 | 36.74390 | -81.35200 | 29815 ft | 381 kts | 283° |
| 2026-05-07 16:43 | 36.75447 | -81.38224 | 30124 ft | 380 kts | 283° |
| 2026-05-07 16:44 | 36.76500 | -81.41240 | 30412 ft | 379 kts | 283° |
| 2026-05-07 16:44 | 36.77547 | -81.44243 | 30684 ft | 377 kts | 283° |
| 2026-05-07 16:44 | 36.78577 | -81.47202 | 30962 ft | 376 kts | 283° |
| 2026-05-07 16:44 | 36.79618 | -81.50192 | 31254 ft | 375 kts | 283° |
| 2026-05-07 16:45 | 36.80654 | -81.53172 | 31558 ft | 373 kts | 283° |
| 2026-05-07 16:45 | 36.81683 | -81.56136 | 31861 ft | 372 kts | 283° |
| 2026-05-07 16:45 | 36.82709 | -81.59091 | 32149 ft | 371 kts | 283° |
| 2026-05-07 16:45 | 36.83732 | -81.62040 | 32455 ft | 369 kts | 283° |
| 2026-05-07 16:46 | 36.84747 | -81.64971 | 32766 ft | 368 kts | 283° |
| 2026-05-07 16:46 | 36.85759 | -81.67896 | 33174 ft | 365 kts | 282° |
| 2026-05-07 16:46 | 36.86746 | -81.70743 | 33606 ft | 360 kts | 282° |
| 2026-05-07 16:46 | 36.87738 | -81.73611 | 33913 ft | 359 kts | 282° |
| 2026-05-07 16:47 | 36.88723 | -81.76471 | 34138 ft | 359 kts | 282° |
| 2026-05-07 16:47 | 36.89710 | -81.79340 | 34368 ft | 359 kts | 282° |
| 2026-05-07 16:47 | 36.90693 | -81.82198 | 34629 ft | 357 kts | 282° |
| 2026-05-07 16:47 | 36.91674 | -81.85050 | 34885 ft | 357 kts | 282° |
| 2026-05-07 16:48 | 36.92650 | -81.87893 | 35140 ft | 356 kts | 282° |
| 2026-05-07 16:48 | 36.93624 | -81.90728 | 35390 ft | 354 kts | 282° |
| 2026-05-07 16:48 | 36.94583 | -81.93523 | 35611 ft | 354 kts | 282° |
| 2026-05-07 16:48 | 36.95550 | -81.96347 | 35855 ft | 353 kts | 282° |
| 2026-05-07 16:49 | 36.96514 | -81.99162 | 36193 ft | 352 kts | 282° |
| 2026-05-07 16:49 | 36.97475 | -82.01969 | 36490 ft | 350 kts | 282° |
| 2026-05-07 16:49 | 36.98430 | -82.04761 | 36730 ft | 348 kts | 282° |
| 2026-05-07 16:49 | 36.99380 | -82.07544 | 36960 ft | 347 kts | 282° |
| 2026-05-07 16:50 | 37.00326 | -82.10320 | 37160 ft | 347 kts | 282° |
| 2026-05-07 16:50 | 37.01271 | -82.13095 | 37325 ft | 347 kts | 282° |
| 2026-05-07 16:50 | 37.02216 | -82.15871 | 37560 ft | 346 kts | 282° |
| 2026-05-07 16:50 | 37.03157 | -82.18635 | 37803 ft | 344 kts | 282° |
| 2026-05-07 16:51 | 37.04080 | -82.21352 | 37976 ft | 344 kts | 282° |
| 2026-05-07 16:51 | 37.05960 | -82.26900 | 37998 ft | 347 kts | 282° |
| 2026-05-07 16:52 | 37.07836 | -82.32433 | 38002 ft | 344 kts | 282° |
| 2026-05-07 16:52 | 37.09696 | -82.37932 | 38006 ft | 343 kts | 282° |
| 2026-05-07 16:52 | 37.10624 | -82.40680 | 38145 ft | 342 kts | 282° |
| 2026-05-07 16:53 | 37.11537 | -82.43390 | 38092 ft | 343 kts | 283° |
| 2026-05-07 16:53 | 37.13395 | -82.48912 | 38015 ft | 345 kts | 283° |
| 2026-05-07 16:54 | 37.15255 | -82.54440 | 38014 ft | 344 kts | 283° |
| 2026-05-07 16:54 | 37.17112 | -82.59972 | 38009 ft | 344 kts | 283° |
| 2026-05-07 16:55 | 37.18961 | -82.65494 | 38012 ft | 344 kts | 283° |
| 2026-05-07 16:55 | 37.20798 | -82.70986 | 38010 ft | 344 kts | 283° |
| 2026-05-07 16:56 | 37.22648 | -82.76533 | 38003 ft | 345 kts | 283° |
| 2026-05-07 16:56 | 37.25421 | -82.84856 | 37999 ft | 343 kts | 283° |
| 2026-05-07 16:57 | 37.27253 | -82.90369 | 38027 ft | 342 kts | 283° |
| 2026-05-07 16:57 | 37.29080 | -82.95881 | 38033 ft | 341 kts | 283° |
| 2026-05-07 16:58 | 37.30888 | -83.01348 | 38022 ft | 341 kts | 283° |
| 2026-05-07 16:58 | 37.32698 | -83.06826 | 38038 ft | 340 kts | 283° |
| 2026-05-07 16:59 | 37.34497 | -83.12284 | 38050 ft | 339 kts | 283° |
| 2026-05-07 16:59 | 37.36297 | -83.17760 | 38062 ft | 340 kts | 283° |
| 2026-05-07 17:00 | 37.38076 | -83.23173 | 38057 ft | 340 kts | 283° |
| 2026-05-07 17:00 | 37.39856 | -83.28517 | 38048 ft | 341 kts | 284° |
| 2026-05-07 17:01 | 37.41790 | -83.33965 | 38046 ft | 341 kts | 284° |
| 2026-05-07 17:01 | 37.43737 | -83.39417 | 38050 ft | 342 kts | 284° |
| 2026-05-07 17:02 | 37.45661 | -83.44835 | 38022 ft | 342 kts | 284° |
| 2026-05-07 17:02 | 37.47594 | -83.50304 | 38023 ft | 342 kts | 284° |
| 2026-05-07 17:03 | 37.49523 | -83.55780 | 38029 ft | 343 kts | 284° |
| 2026-05-07 17:03 | 37.51455 | -83.61279 | 38036 ft | 344 kts | 284° |
| 2026-05-07 17:04 | 37.53376 | -83.66755 | 38026 ft | 344 kts | 284° |
| 2026-05-07 17:04 | 37.55298 | -83.72244 | 38088 ft | 345 kts | 284° |
| 2026-05-07 17:05 | 37.57238 | -83.77797 | 38043 ft | 347 kts | 284° |
| 2026-05-07 17:05 | 37.59187 | -83.83383 | 38032 ft | 349 kts | 284° |
| 2026-05-07 17:06 | 37.61123 | -83.88942 | 38030 ft | 349 kts | 284° |
| 2026-05-07 17:06 | 37.63073 | -83.94554 | 38051 ft | 350 kts | 285° |
| 2026-05-07 17:07 | 37.65027 | -84.00189 | 38046 ft | 351 kts | 285° |
| 2026-05-07 17:07 | 37.66986 | -84.05844 | 38054 ft | 352 kts | 285° |
| 2026-05-07 17:08 | 37.68929 | -84.11466 | 38066 ft | 352 kts | 285° |
| 2026-05-07 17:08 | 37.70881 | -84.17125 | 38069 ft | 351 kts | 285° |
| 2026-05-07 17:09 | 37.72826 | -84.22774 | 38065 ft | 351 kts | 285° |
| 2026-05-07 17:09 | 37.74771 | -84.28433 | 38066 ft | 351 kts | 285° |
| 2026-05-07 17:10 | 37.76715 | -84.34106 | 38074 ft | 352 kts | 285° |
| 2026-05-07 17:10 | 37.78642 | -84.39735 | 38059 ft | 353 kts | 285° |
| 2026-05-07 17:11 | 37.80590 | -84.45439 | 38061 ft | 354 kts | 285° |
| 2026-05-07 17:11 | 37.82540 | -84.51158 | 38064 ft | 354 kts | 285° |
| 2026-05-07 17:12 | 37.84497 | -84.56913 | 38062 ft | 358 kts | 285° |
| 2026-05-07 17:12 | 37.86466 | -84.62713 | 38058 ft | 360 kts | 285° |
| 2026-05-07 17:13 | 37.88445 | -84.68550 | 38066 ft | 361 kts | 286° |
| 2026-05-07 17:13 | 37.90408 | -84.74350 | 38067 ft | 363 kts | 286° |
| 2026-05-07 17:14 | 37.92394 | -84.80233 | 38064 ft | 363 kts | 286° |
| 2026-05-07 17:14 | 37.94378 | -84.86119 | 38062 ft | 364 kts | 286° |
| 2026-05-07 17:15 | 37.96359 | -84.92010 | 38066 ft | 364 kts | 286° |
| 2026-05-07 17:15 | 37.98339 | -84.97909 | 38084 ft | 363 kts | 286° |
| 2026-05-07 17:16 | 38.00297 | -85.03759 | 38070 ft | 363 kts | 285° |
| 2026-05-07 17:16 | 38.02270 | -85.09664 | 38083 ft | 364 kts | 286° |
| 2026-05-07 17:17 | 38.04241 | -85.15573 | 38073 ft | 364 kts | 286° |
| 2026-05-07 17:17 | 38.06212 | -85.21496 | 38073 ft | 364 kts | 286° |
| 2026-05-07 17:18 | 38.08181 | -85.27421 | 38071 ft | 364 kts | 286° |
| 2026-05-07 17:18 | 38.10132 | -85.33309 | 38133 ft | 365 kts | 286° |
| 2026-05-07 17:19 | 38.12101 | -85.39264 | 38091 ft | 367 kts | 287° |
| 2026-05-07 17:19 | 38.14076 | -85.45246 | 38074 ft | 368 kts | 287° |
| 2026-05-07 17:20 | 38.16054 | -85.51235 | 38083 ft | 369 kts | 288° |
| 2026-05-07 17:20 | 38.17438 | -85.54039 | 38088 ft | 383 kts | 302° |
| 2026-05-07 17:20 | 38.19392 | -85.56417 | 38077 ft | 397 kts | 311° |
| 2026-05-07 17:21 | 38.21687 | -85.58378 | 38080 ft | 408 kts | 319° |
| 2026-05-07 17:21 | 38.24351 | -85.59812 | 38073 ft | 428 kts | 332° |
| 2026-05-07 17:21 | 38.27341 | -85.60471 | 38095 ft | 441 kts | 340° |
| 2026-05-07 17:21 | 38.30416 | -85.60847 | 38083 ft | 445 kts | 341° |
| 2026-05-07 17:22 | 38.36550 | -85.61598 | 38065 ft | 441 kts | 340° |
| 2026-05-07 17:22 | 38.39607 | -85.62042 | 37672 ft | 446 kts | 339° |
| 2026-05-07 17:22 | 38.42698 | -85.62520 | 37029 ft | 446 kts | 339° |
| 2026-05-07 17:23 | 38.45783 | -85.62997 | 36319 ft | 446 kts | 339° |
| 2026-05-07 17:23 | 38.48870 | -85.63474 | 35515 ft | 448 kts | 339° |
| 2026-05-07 17:23 | 38.51937 | -85.63947 | 34662 ft | 452 kts | 339° |
| 2026-05-07 17:23 | 38.55076 | -85.64430 | 33710 ft | 457 kts | 339° |
| 2026-05-07 17:24 | 38.58231 | -85.64909 | 32818 ft | 457 kts | 340° |
| 2026-05-07 17:24 | 38.61324 | -85.65373 | 31729 ft | 463 kts | 341° |
| 2026-05-07 17:24 | 38.64503 | -85.65836 | 30945 ft | 460 kts | 342° |
| 2026-05-07 17:24 | 38.67697 | -85.66300 | 29730 ft | 464 kts | 343° |
| 2026-05-07 17:25 | 38.70876 | -85.66764 | 28623 ft | 463 kts | 343° |
| 2026-05-07 17:25 | 38.74078 | -85.67229 | 27652 ft | 461 kts | 343° |
| 2026-05-07 17:25 | 38.77236 | -85.67687 | 26950 ft | 452 kts | 343° |
| 2026-05-07 17:25 | 38.80300 | -85.68126 | 26072 ft | 437 kts | 343° |
| 2026-05-07 17:26 | 38.83299 | -85.68564 | 24931 ft | 431 kts | 343° |
| 2026-05-07 17:26 | 38.86273 | -85.69008 | 23757 ft | 428 kts | 343° |
| 2026-05-07 17:26 | 38.89164 | -85.69440 | 22718 ft | 419 kts | 344° |
| 2026-05-07 17:26 | 38.92051 | -85.69871 | 21861 ft | 416 kts | 344° |
| 2026-05-07 17:27 | 38.94922 | -85.70302 | 21015 ft | 415 kts | 344° |
| 2026-05-07 17:27 | 38.97787 | -85.70729 | 20164 ft | 414 kts | 345° |
| 2026-05-07 17:27 | 39.00642 | -85.71154 | 19336 ft | 413 kts | 345° |
| 2026-05-07 17:27 | 39.03478 | -85.71595 | 18784 ft | 405 kts | 344° |
| 2026-05-07 17:28 | 39.06234 | -85.72075 | 18311 ft | 396 kts | 343° |
| 2026-05-07 17:28 | 39.08940 | -85.72562 | 17783 ft | 389 kts | 343° |
| 2026-05-07 17:28 | 39.11595 | -85.73036 | 17302 ft | 382 kts | 343° |
| 2026-05-07 17:28 | 39.14227 | -85.73503 | 16840 ft | 383 kts | 343° |
| 2026-05-07 17:29 | 39.16744 | -85.74315 | 16363 ft | 374 kts | 330° |
| 2026-05-07 17:29 | 39.19083 | -85.75715 | 15934 ft | 368 kts | 327° |
| 2026-05-07 17:29 | 39.21392 | -85.77130 | 15504 ft | 366 kts | 328° |
| 2026-05-07 17:29 | 39.23704 | -85.78497 | 15083 ft | 365 kts | 329° |
| 2026-05-07 17:30 | 39.26014 | -85.79835 | 14661 ft | 363 kts | 329° |
| 2026-05-07 17:30 | 39.28309 | -85.81155 | 14253 ft | 361 kts | 329° |
| 2026-05-07 17:30 | 39.30602 | -85.82473 | 13832 ft | 360 kts | 330° |
| 2026-05-07 17:30 | 39.32876 | -85.83808 | 13356 ft | 357 kts | 327° |
| 2026-05-07 17:31 | 39.34896 | -85.85577 | 12926 ft | 347 kts | 316° |
| 2026-05-07 17:31 | 39.36736 | -85.87571 | 12515 ft | 345 kts | 316° |
| 2026-05-07 17:31 | 39.37948 | -85.88889 | 12217 ft | 344 kts | 316° |
| 2026-05-07 17:31 | 39.40406 | -85.91525 | 11671 ft | 340 kts | 317° |
| 2026-05-07 17:32 | 39.42195 | -85.93410 | 11289 ft | 332 kts | 317° |
| 2026-05-07 17:32 | 39.43860 | -85.95151 | 10934 ft | 324 kts | 318° |
| 2026-05-07 17:32 | 39.45591 | -85.96961 | 10573 ft | 317 kts | 318° |
| 2026-05-07 17:32 | 39.46675 | -85.98084 | 10344 ft | 313 kts | 319° |
| 2026-05-07 17:33 | 39.48926 | -86.00305 | 9899 ft | 298 kts | 320° |
| 2026-05-07 17:33 | 39.50511 | -86.01840 | 9901 ft | 273 kts | 320° |
| 2026-05-07 17:33 | 39.51490 | -86.02791 | 9896 ft | 258 kts | 321° |
| 2026-05-07 17:33 | 39.52884 | -86.04152 | 9634 ft | 247 kts | 321° |
| 2026-05-07 17:34 | 39.54252 | -86.05495 | 9101 ft | 247 kts | 321° |
| 2026-05-07 17:34 | 39.55618 | -86.06838 | 8568 ft | 247 kts | 321° |
| 2026-05-07 17:34 | 39.56981 | -86.08179 | 8213 ft | 248 kts | 322° |
| 2026-05-07 17:34 | 39.58355 | -86.09531 | 7896 ft | 248 kts | 322° |
| 2026-05-07 17:35 | 39.60131 | -86.11366 | 7489 ft | 246 kts | 316° |
| 2026-05-07 17:35 | 39.60951 | -86.12423 | 7289 ft | 246 kts | 314° |
| 2026-05-07 17:35 | 39.62142 | -86.14017 | 6991 ft | 245 kts | 314° |
| 2026-05-07 17:35 | 39.63313 | -86.15579 | 6701 ft | 245 kts | 314° |
| 2026-05-07 17:36 | 39.64499 | -86.17136 | 6405 ft | 239 kts | 318° |
| 2026-05-07 17:36 | 39.65909 | -86.18160 | 6101 ft | 232 kts | 346° |
| 2026-05-07 17:36 | 39.67477 | -86.18176 | 6020 ft | 222 kts | 8° |
| 2026-05-07 17:36 | 39.68905 | -86.17480 | 6004 ft | 220 kts | 28° |
| 2026-05-07 17:37 | 39.70079 | -86.16182 | 6009 ft | 222 kts | 40° |
| 2026-05-07 17:37 | 39.71179 | -86.14766 | 6003 ft | 224 kts | 40° |
| 2026-05-07 17:37 | 39.72291 | -86.13335 | 5986 ft | 226 kts | 41° |
| 2026-05-07 17:37 | 39.73423 | -86.11881 | 5753 ft | 232 kts | 41° |
| 2026-05-07 17:38 | 39.74576 | -86.10402 | 5493 ft | 233 kts | 41° |
| 2026-05-07 17:38 | 39.75739 | -86.08993 | 5243 ft | 232 kts | 38° |
| 2026-05-07 17:38 | 39.76945 | -86.07598 | 4979 ft | 232 kts | 38° |
| 2026-05-07 17:38 | 39.78195 | -86.06291 | 4693 ft | 229 kts | 23° |
| 2026-05-07 17:39 | 39.79691 | -86.05904 | 4421 ft | 215 kts | 349° |
| 2026-05-07 17:39 | 39.81022 | -86.06579 | 4245 ft | 202 kts | 328° |
| 2026-05-07 17:39 | 39.82196 | -86.07513 | 4108 ft | 196 kts | 326° |
| 2026-05-07 17:39 | 39.83317 | -86.08429 | 4034 ft | 184 kts | 326° |
| 2026-05-07 17:40 | 39.84194 | -86.09544 | 3983 ft | 176 kts | 294° |
| 2026-05-07 17:40 | 39.84513 | -86.11060 | 3991 ft | 174 kts | 283° |
| 2026-05-07 17:40 | 39.84700 | -86.12584 | 3989 ft | 175 kts | 271° |
| 2026-05-07 17:40 | 39.84228 | -86.14044 | 3881 ft | 184 kts | 232° |
| 2026-05-07 17:41 | 39.83374 | -86.15310 | 3634 ft | 186 kts | 233° |
| 2026-05-07 17:41 | 39.82541 | -86.16574 | 3399 ft | 183 kts | 233° |
| 2026-05-07 17:41 | 39.81724 | -86.17804 | 3265 ft | 175 kts | 232° |
| 2026-05-07 17:41 | 39.80920 | -86.18926 | 3073 ft | 165 kts | 229° |
| 2026-05-07 17:42 | 39.80146 | -86.19930 | 2851 ft | 154 kts | 229° |
| 2026-05-07 17:42 | 39.79419 | -86.20864 | 2669 ft | 144 kts | 229° |
| 2026-05-07 17:42 | 39.78714 | -86.21765 | 2500 ft | 141 kts | 229° |
| 2026-05-07 17:42 | 39.78024 | -86.22644 | 2283 ft | 140 kts | 230° |
| 2026-05-07 17:43 | 39.77327 | -86.23535 | 2103 ft | 142 kts | 229° |
| 2026-05-07 17:43 | 39.76627 | -86.24433 | 1908 ft | 141 kts | 230° |
| 2026-05-07 17:43 | 39.75932 | -86.25318 | 1731 ft | 138 kts | 228° |
| 2026-05-07 17:43 | 39.75251 | -86.26179 | 1559 ft | 136 kts | 227° |
| 2026-05-07 17:44 | 39.74562 | -86.27053 | 1371 ft | 140 kts | 230° |
| 2026-05-07 17:44 | 39.73867 | -86.27943 | 1150 ft | 141 kts | 231° |
| 2026-05-07 17:44 | 39.73179 | -86.28825 | 940 ft | 140 kts | 232° |
| 2026-05-07 17:44 | 39.72493 | -86.29716 | 793 ft | 132 kts | 231° |
| 2026-05-07 17:45 | 39.71913 | -86.30458 | 782 ft | 102 kts | 225° |
| 2026-05-07 17:45 | 39.71493 | -86.30992 | 787 ft | 67 kts | 224° |
| 2026-05-07 17:45 | 39.71229 | -86.31333 | 783 ft | 48 kts | 224° |
| 2026-05-07 17:45 | 39.71002 | -86.31624 | 786 ft | 43 kts | 224° |
| 2026-05-07 17:46 | 39.70799 | -86.31878 | 789 ft | 36 kts | 225° |
| 2026-05-07 17:46 | 39.70683 | -86.31949 | 788 ft | 15 kts | 156° |
| 2026-05-07 17:46 | 39.70633 | -86.31892 | 787 ft | 6 kts | 131° |
| 2026-05-07 17:46 | 39.70614 | -86.31836 | 787 ft | 8 kts | 87° |
| 2026-05-07 17:47 | 39.70647 | -86.31770 | 788 ft | 10 kts | 46° |
| 2026-05-07 17:47 | 39.70702 | -86.31705 | 787 ft | 11 kts | 43° |
| 2026-05-07 17:47 | 39.70760 | -86.31633 | 786 ft | 11 kts | 45° |
| 2026-05-07 17:47 | 39.70815 | -86.31561 | 786 ft | 11 kts | 44° |
| 2026-05-07 17:48 | 39.70872 | -86.31489 | 785 ft | 12 kts | 45° |
| 2026-05-07 17:48 | 39.70944 | -86.31396 | 782 ft | 17 kts | 45° |
| 2026-05-07 17:48 | 39.71029 | -86.31291 | 783 ft | 17 kts | 43° |
| 2026-05-07 17:48 | 39.71110 | -86.31187 | 782 ft | 16 kts | 44° |
| 2026-05-07 17:49 | 39.71188 | -86.31089 | 783 ft | 15 kts | 43° |
| 2026-05-07 17:49 | 39.71265 | -86.30995 | 785 ft | 15 kts | 46° |
| 2026-05-07 17:49 | 39.71345 | -86.30886 | 786 ft | 20 kts | 46° |
| 2026-05-07 17:49 | 39.71454 | -86.30745 | 787 ft | 24 kts | 44° |
| 2026-05-07 17:50 | 39.71578 | -86.30591 | 784 ft | 23 kts | 43° |
| 2026-05-07 17:50 | 39.71691 | -86.30448 | 781 ft | 22 kts | 45° |
| 2026-05-07 17:50 | 39.71798 | -86.30308 | 782 ft | 22 kts | 46° |
| 2026-05-07 17:50 | 39.71904 | -86.30172 | 782 ft | 21 kts | 44° |
| 2026-05-07 17:51 | 39.72005 | -86.30042 | 786 ft | 20 kts | 45° |
| 2026-05-07 17:51 | 39.72105 | -86.29916 | 785 ft | 20 kts | 44° |
| 2026-05-07 17:51 | 39.72198 | -86.29804 | 786 ft | 13 kts | 42° |
| 2026-05-07 17:51 | 39.72245 | -86.29701 | 783 ft | 15 kts | 101° |
| 2026-05-07 17:52 | 39.72164 | -86.29576 | 786 ft | 20 kts | 134° |
| 2026-05-07 17:52 | 39.72070 | -86.29452 | 787 ft | 19 kts | 135° |
| 2026-05-07 17:52 | 39.71979 | -86.29332 | 789 ft | 18 kts | 135° |
| 2026-05-07 17:52 | 39.71890 | -86.29216 | 789 ft | 18 kts | 135° |
| 2026-05-07 17:53 | 39.71799 | -86.29098 | 786 ft | 19 kts | 135° |
| 2026-05-07 17:53 | 39.71710 | -86.28977 | 784 ft | 19 kts | 133° |
| 2026-05-07 17:53 | 39.71621 | -86.28858 | 785 ft | 18 kts | 134° |
| 2026-05-07 17:53 | 39.71583 | -86.28784 | 785 ft | 8 kts | 97° |
| 2026-05-07 17:54 | 39.71629 | -86.28697 | 785 ft | 16 kts | 43° |
| 2026-05-07 17:54 | 39.71713 | -86.28595 | 784 ft | 17 kts | 43° |
| 2026-05-07 17:54 | 39.71756 | -86.28468 | 782 ft | 17 kts | 120° |
| 2026-05-07 17:54 | 39.71677 | -86.28358 | 782 ft | 16 kts | 134° |
| 2026-05-07 17:55 | 39.71601 | -86.28252 | 785 ft | 16 kts | 118° |
| 2026-05-07 17:55 | 39.71630 | -86.28122 | 787 ft | 15 kts | 59° |
| 2026-05-07 17:55 | 39.71677 | -86.27999 | 787 ft | 16 kts | 91° |
| 2026-05-07 17:55 | 39.71711 | -86.27869 | 788 ft | 16 kts | 45° |
| 2026-05-07 17:56 | 39.71728 | -86.27828 | 788 ft | 3 kts | 112° |
| 2026-05-07 17:56 | 39.71715 | -86.27804 | 789 ft | 4 kts | 132° |
| 2026-05-07 17:56 | 39.71699 | -86.27783 | 789 ft | 2 kts | 135° |
| 2026-05-07 17:56 | 39.71695 | -86.27778 | 789 ft | 0 kts | 135° |